Flight Track Log - Related Links

Times and Time Zones

All times are in EDT time to prevent confusion due to time zone crossing. See the FLG3862 flight status page for this flight to view local times or setup timezone preferences in your user account.


Time Position Orientation Groundspeed Altitude Reporting Facility
EDT Latitude Longitude Course Direction KTS MPH feet Rate Location/Type
Thu 10:53:06 AM 42.1994 -83.3581 94° East 163 188 1,200  Level Cleveland Center
Thu 10:54:07 AM 42.1472 -83.3586 180° South 221 254 2,900 1,805 Climbing Cleveland Center
Thu 10:55:09 AM 42.0828 -83.3531 176° South 258 297 4,900 2,293 Climbing Cleveland Center
Thu 10:56:00 AM 42.3203 -82.7143 82° East  Level FlightAware Approximate
Thu 10:56:10 AM 42.0431 -83.2703 123° Southeast 283 326 7,600  Level Cleveland Center
Thu 10:57:00 AM 42.3410 -82.5529 71° East  Level FlightAware Approximate
Thu 10:57:45 AM 42.0967 -83.1100 66° East 299 344 10,100  Level Cleveland Center
Thu 10:58:00 AM 42.3665 -82.3974 94° East  Level FlightAware Approximate
Thu 10:58:45 AM 42.1428 -83.0028 60° Northeast 309 356 11,900  Level Cleveland Center
Thu 10:59:45 AM 42.1911 -82.8869 61° Northeast 331 381 13,500 1,450 Climbing Cleveland Center
Thu 11:00:45 AM 42.2417 -82.7483 64° Northeast 364 419 14,800 1,500 Climbing Cleveland Center
Thu 11:01:45 AM 42.2425 -82.5914 90° East 400 460 16,500 1,700 Climbing Cleveland Center
Thu 11:02:45 AM 42.2389 -82.4342 92° East 406 467 18,200 1,550 Climbing Cleveland Center
Thu 11:03:45 AM 42.2394 -82.2658 90° East 412 474 19,600 1,250 Climbing Cleveland Center
Thu 11:04:45 AM 42.2372 -82.1200 91° East 431 496 20,700 1,150 Climbing Cleveland Center
Thu 11:05:45 AM 42.2372 -81.9544 90° East 440 506 21,900 1,050 Climbing Cleveland Center
Thu 11:06:45 AM 42.2372 -81.7836 90° East 446 513 22,800 800 Climbing Cleveland Center
Thu 11:07:45 AM 42.2347 -81.5983 91° East 451 519 23,500 700 Climbing Cleveland Center
Thu 11:08:45 AM 42.2342 -81.4217 90° East 466 536 24,200 700 Climbing Cleveland Center
Thu 11:09:45 AM 42.2311 -81.2394 91° East 471 542 24,900 700 Climbing Cleveland Center
Thu 11:10:45 AM 42.2300 -81.0600 90° East 481 554 25,600 750 Climbing Cleveland Center
Thu 11:11:45 AM 42.2283 -80.8803 91° East 481 554 26,400 750 Climbing Cleveland Center
Thu 11:12:45 AM 42.2267 -80.7008 91° East 474 545 27,100 650 Climbing Cleveland Center
Thu 11:13:45 AM 42.2433 -80.5186 83° East 482 555 27,700 550 Climbing Cleveland Center
Thu 11:14:45 AM 42.3017 -80.3586 64° Northeast 466 536 28,200 450 Climbing Cleveland Center
Thu 11:15:45 AM 42.3533 -80.2122 64° Northeast 471 542 28,600 450 Climbing Cleveland Center
Thu 11:16:45 AM 42.4111 -80.0461 65° Northeast 477 549 29,100 450 Climbing Cleveland Center
Thu 11:17:45 AM 42.4725 -79.8653 65° Northeast 477 549 29,500 450 Climbing Cleveland Center
Thu 11:18:45 AM 42.5297 -79.7014 65° Northeast 477 549 30,000 550 Climbing Cleveland Center
Thu 11:19:45 AM 42.5806 -79.5511 65° Northeast 477 549 30,600 500 Climbing Cleveland Center
Thu 11:20:45 AM 42.6311 -79.3894 67° East 477 549 31,000 200 Climbing Cleveland Center
Thu 11:21:45 AM 42.6878 -79.2189 66° East 477 549 31,000  Level Cleveland Center
Thu 11:22:45 AM 42.7439 -79.0481 66° East 482 555 31,000  Level Cleveland Center
Thu 11:23:45 AM 42.8019 -78.8797 65° Northeast 482 555 31,000  Level Cleveland Center
Thu 11:24:45 AM 42.8575 -78.7025 67° East 482 555 31,000  Level Cleveland Center
Thu 11:25:45 AM 42.9150 -78.5222 66° East 496 571 31,000  Level Cleveland Center
Thu 11:26:45 AM 42.9719 -78.3417 67° East 503 579 31,000  Level Cleveland Center
Thu 11:27:45 AM 43.0289 -78.1633 66° East 503 579 31,000  Level Cleveland Center
Thu 11:28:45 AM 43.0875 -77.9819 66° East 508 585 31,000  Level Cleveland Center
Thu 11:29:45 AM 43.1436 -77.8003 67° East 508 585 31,000  Level Cleveland Center
Thu 11:31:32 AM 43.2439 -77.4719 67° East 518 596 31,000  Level Boston Center
Thu 11:32:32 AM 43.3042 -77.2856 66° East 524 603 31,000  Level Boston Center
Thu 11:33:32 AM 43.3600 -77.0986 68° East 524 603 31,000  Level Boston Center
Thu 11:34:32 AM 43.4197 -76.9089 67° East 524 603 31,000  Level Boston Center
Thu 11:35:32 AM 43.4769 -76.7211 67° East 524 603 31,000  Level Boston Center
Thu 11:36:32 AM 43.5408 -76.5108 67° East 529 609 31,000  Level Boston Center
Thu 11:37:32 AM 43.5956 -76.3194 68° East 529 609 31,000  Level Boston Center
Thu 11:38:32 AM 43.6539 -76.1281 67° East 529 609 31,000 -50 Level Boston Center
Thu 11:39:32 AM 43.7100 -75.9331 68° East 529 609 30,900 -50 Descending Boston Center
Thu 11:40:32 AM 43.7639 -75.7378 69° East 534 615 30,900  Level Boston Center
Thu 11:41:32 AM 43.8233 -75.5425 67° East 539 620 30,900  Level Boston Center
Thu 11:42:32 AM 43.8767 -75.3464 69° East 544 626 30,900 -1,000 Level Boston Center
Thu 11:43:32 AM 43.9336 -75.1444 69° East 549 632 28,900 -1,850 Descending Boston Center
Thu 11:44:32 AM 43.9814 -74.9706 69° East 549 632 27,200 -2,133 Descending Boston Center
Thu 11:46:32 AM 44.0892 -74.5906 68° East 528 608 22,500 -2,233 Descending Boston Center
Thu 11:47:32 AM 44.1361 -74.4072 70° East 513 590 20,500 -1,800 Descending Boston Center
Thu 11:48:32 AM 44.1828 -74.2408 69° East 481 554 18,900 -1,700 Descending Boston Center
Thu 11:49:32 AM 44.2225 -74.0883 70° East 442 509 17,100 -1,600 Descending Boston Center
Thu 11:50:32 AM 44.2619 -73.9417 69° East 415 478 15,700 -1,500 Descending Boston Center
Thu 11:51:32 AM 44.3033 -73.7889 69° East 410 472 14,100 -1,700 Descending Boston Center
Thu 11:52:32 AM 44.3447 -73.6361 69° East 394 453 12,300 -1,700 Descending Boston Center
Thu 11:53:32 AM 44.3772 -73.5089 70° East 357 411 10,700 -1,750 Descending Boston Center
Thu 11:54:32 AM 44.3742 -73.3811 92° East 322 371 8,800 -1,350 Descending Boston Center
Thu 11:55:32 AM 44.3497 -73.2906 111° Southeast 314 361 8,000 -1,250 Descending Boston Center
Thu 11:56:32 AM 44.3175 -73.1567 109° East 302 348 6,300 -1,050 Descending Boston Center
Thu 11:57:32 AM 44.2972 -73.0578 106° East 283 326 5,900 -450 Descending Boston Center
Thu 11:58:32 AM 44.3392 -72.9800 53° Northeast 228 262 5,400 -850 Descending Boston Center
Thu 11:59:32 AM 44.3828 -73.0122 332° Northwest 119 137 4,200 -1,400 Descending Boston Center
Thu 12:00:32 PM 44.4097 -73.0533 313° West 105 121 2,600 -1,450 Descending Boston Center
Thu 12:01:32 PM 44.4344 -73.0942 310° West 123 142 1,300 -1,300 Descending Boston Center

Login

Don't have an account? Register now (free) for customized features, flight alerts, and more!